sensor_id;sensor_type;location;lat;lon;timestamp;P1;durP1;ratioP1;P2;durP2;ratioP2
75667;SDS011;64266;48.798;44.756;2024-01-16T00:03:38;8.20;;;3.63;;
75667;SDS011;64266;48.798;44.756;2024-01-16T00:08:41;7.65;;;3.75;;
75667;SDS011;64266;48.798;44.756;2024-01-16T00:13:44;8.65;;;3.05;;
75667;SDS011;64266;48.798;44.756;2024-01-16T00:18:48;7.32;;;3.13;;
75667;SDS011;64266;48.798;44.756;2024-01-16T00:23:51;7.80;;;3.58;;
75667;SDS011;64266;48.798;44.756;2024-01-16T00:28:54;5.63;;;2.97;;
75667;SDS011;64266;48.798;44.756;2024-01-16T00:33:59;7.70;;;3.30;;
75667;SDS011;64266;48.798;44.756;2024-01-16T00:39:02;7.93;;;3.25;;
75667;SDS011;64266;48.798;44.756;2024-01-16T00:44:06;7.35;;;3.15;;
75667;SDS011;64266;48.798;44.756;2024-01-16T00:49:10;6.38;;;3.28;;
75667;SDS011;64266;48.798;44.756;2024-01-16T00:54:13;6.32;;;3.05;;
75667;SDS011;64266;48.798;44.756;2024-01-16T00:59:17;10.52;;;3.65;;
75667;SDS011;64266;48.798;44.756;2024-01-16T01:04:22;8.00;;;3.50;;
75667;SDS011;64266;48.798;44.756;2024-01-16T01:09:25;6.68;;;3.50;;
75667;SDS011;64266;48.798;44.756;2024-01-16T01:14:28;8.90;;;3.60;;
75667;SDS011;64266;48.798;44.756;2024-01-16T01:19:32;9.75;;;4.38;;
75667;SDS011;64266;48.798;44.756;2024-01-16T01:24:36;9.35;;;3.60;;
75667;SDS011;64266;48.798;44.756;2024-01-16T01:29:38;11.38;;;3.83;;
75667;SDS011;64266;48.798;44.756;2024-01-16T01:34:42;10.27;;;3.85;;
75667;SDS011;64266;48.798;44.756;2024-01-16T01:39:45;8.90;;;3.63;;
75667;SDS011;64266;48.798;44.756;2024-01-16T01:44:48;8.60;;;3.60;;
75667;SDS011;64266;48.798;44.756;2024-01-16T01:49:51;8.73;;;3.50;;
75667;SDS011;64266;48.798;44.756;2024-01-16T01:54:55;6.50;;;3.08;;
75667;SDS011;64266;48.798;44.756;2024-01-16T01:59:59;7.45;;;2.55;;
75667;SDS011;64266;48.798;44.756;2024-01-16T02:05:13;8.10;;;3.58;;
75667;SDS011;64266;48.798;44.756;2024-01-16T02:10:18;7.25;;;3.45;;
75667;SDS011;64266;48.798;44.756;2024-01-16T02:15:23;5.70;;;2.72;;
75667;SDS011;64266;48.798;44.756;2024-01-16T02:20:26;6.55;;;3.65;;
75667;SDS011;64266;48.798;44.756;2024-01-16T02:25:30;7.90;;;3.35;;
75667;SDS011;64266;48.798;44.756;2024-01-16T02:30:33;5.63;;;2.97;;
75667;SDS011;64266;48.798;44.756;2024-01-16T02:35:36;6.55;;;3.15;;
75667;SDS011;64266;48.798;44.756;2024-01-16T02:40:39;5.13;;;2.83;;
75667;SDS011;64266;48.798;44.756;2024-01-16T02:45:42;5.97;;;2.70;;
75667;SDS011;64266;48.798;44.756;2024-01-16T02:50:46;5.72;;;3.03;;
75667;SDS011;64266;48.798;44.756;2024-01-16T02:55:49;6.68;;;2.97;;
75667;SDS011;64266;48.798;44.756;2024-01-16T03:00:52;8.23;;;3.60;;
75667;SDS011;64266;48.798;44.756;2024-01-16T03:05:55;6.22;;;3.45;;
75667;SDS011;64266;48.798;44.756;2024-01-16T03:10:58;6.55;;;3.22;;
75667;SDS011;64266;48.798;44.756;2024-01-16T03:16:06;7.47;;;3.50;;
75667;SDS011;64266;48.798;44.756;2024-01-16T03:21:10;7.32;;;3.83;;
75667;SDS011;64266;48.798;44.756;2024-01-16T03:26:16;8.80;;;4.05;;
75667;SDS011;64266;48.798;44.756;2024-01-16T03:31:20;7.45;;;3.38;;
75667;SDS011;64266;48.798;44.756;2024-01-16T03:36:23;7.93;;;4.03;;
75667;SDS011;64266;48.798;44.756;2024-01-16T03:41:26;7.00;;;3.78;;
75667;SDS011;64266;48.798;44.756;2024-01-16T03:46:30;9.48;;;4.00;;
75667;SDS011;64266;48.798;44.756;2024-01-16T03:51:33;8.93;;;4.50;;
75667;SDS011;64266;48.798;44.756;2024-01-16T03:56:36;9.40;;;4.85;;
75667;SDS011;64266;48.798;44.756;2024-01-16T04:01:40;11.55;;;5.45;;
75667;SDS011;64266;48.798;44.756;2024-01-16T04:06:46;9.10;;;5.20;;
75667;SDS011;64266;48.798;44.756;2024-01-16T04:11:49;9.45;;;4.80;;
75667;SDS011;64266;48.798;44.756;2024-01-16T04:16:54;17.77;;;8.32;;
75667;SDS011;64266;48.798;44.756;2024-01-16T04:21:58;8.88;;;4.65;;
75667;SDS011;64266;48.798;44.756;2024-01-16T04:27:01;15.73;;;7.85;;
75667;SDS011;64266;48.798;44.756;2024-01-16T04:32:04;17.05;;;9.05;;
75667;SDS011;64266;48.798;44.756;2024-01-16T04:37:07;15.18;;;8.95;;
75667;SDS011;64266;48.798;44.756;2024-01-16T04:42:11;15.45;;;8.23;;
75667;SDS011;64266;48.798;44.756;2024-01-16T04:47:16;8.48;;;5.15;;
75667;SDS011;64266;48.798;44.756;2024-01-16T04:52:19;13.70;;;7.78;;
75667;SDS011;64266;48.798;44.756;2024-01-16T04:57:23;11.23;;;6.43;;
75667;SDS011;64266;48.798;44.756;2024-01-16T05:02:26;11.88;;;6.40;;
75667;SDS011;64266;48.798;44.756;2024-01-16T05:07:29;11.38;;;6.07;;
75667;SDS011;64266;48.798;44.756;2024-01-16T05:12:32;15.10;;;7.85;;
75667;SDS011;64266;48.798;44.756;2024-01-16T05:17:40;10.63;;;6.13;;
75667;SDS011;64266;48.798;44.756;2024-01-16T05:22:47;13.10;;;6.53;;
75667;SDS011;64266;48.798;44.756;2024-01-16T05:27:51;12.68;;;6.82;;
75667;SDS011;64266;48.798;44.756;2024-01-16T05:32:54;13.30;;;7.10;;
75667;SDS011;64266;48.798;44.756;2024-01-16T05:37:59;12.23;;;6.57;;
75667;SDS011;64266;48.798;44.756;2024-01-16T05:43:01;23.85;;;10.68;;
75667;SDS011;64266;48.798;44.756;2024-01-16T05:48:06;11.98;;;6.07;;
75667;SDS011;64266;48.798;44.756;2024-01-16T05:53:13;10.82;;;6.07;;
75667;SDS011;64266;48.798;44.756;2024-01-16T05:58:17;13.82;;;7.60;;
75667;SDS011;64266;48.798;44.756;2024-01-16T06:03:20;13.93;;;6.53;;
75667;SDS011;64266;48.798;44.756;2024-01-16T06:08:23;13.68;;;7.28;;
75667;SDS011;64266;48.798;44.756;2024-01-16T06:13:27;14.88;;;7.00;;
75667;SDS011;64266;48.798;44.756;2024-01-16T06:18:29;13.48;;;7.40;;
75667;SDS011;64266;48.798;44.756;2024-01-16T06:23:33;15.05;;;7.00;;
75667;SDS011;64266;48.798;44.756;2024-01-16T06:28:35;15.05;;;7.28;;
75667;SDS011;64266;48.798;44.756;2024-01-16T06:33:38;12.57;;;6.47;;
75667;SDS011;64266;48.798;44.756;2024-01-16T06:38:43;21.20;;;7.07;;
75667;SDS011;64266;48.798;44.756;2024-01-16T06:43:46;17.08;;;8.00;;
75667;SDS011;64266;48.798;44.756;2024-01-16T06:48:49;13.45;;;6.82;;
75667;SDS011;64266;48.798;44.756;2024-01-16T06:53:52;13.63;;;6.80;;
75667;SDS011;64266;48.798;44.756;2024-01-16T06:58:55;10.57;;;5.57;;
75667;SDS011;64266;48.798;44.756;2024-01-16T07:03:58;11.45;;;5.25;;
75667;SDS011;64266;48.798;44.756;2024-01-16T07:09:01;12.88;;;6.00;;
75667;SDS011;64266;48.798;44.756;2024-01-16T07:14:09;11.10;;;6.15;;
75667;SDS011;64266;48.798;44.756;2024-01-16T07:19:13;11.63;;;5.88;;
75667;SDS011;64266;48.798;44.756;2024-01-16T07:24:17;11.65;;;4.82;;
75667;SDS011;64266;48.798;44.756;2024-01-16T07:29:20;10.27;;;4.63;;
75667;SDS011;64266;48.798;44.756;2024-01-16T07:34:23;9.60;;;4.63;;
75667;SDS011;64266;48.798;44.756;2024-01-16T07:39:28;9.77;;;4.85;;
75667;SDS011;64266;48.798;44.756;2024-01-16T07:44:32;7.13;;;3.90;;
75667;SDS011;64266;48.798;44.756;2024-01-16T07:49:35;9.25;;;3.97;;
75667;SDS011;64266;48.798;44.756;2024-01-16T07:54:38;10.38;;;4.97;;
75667;SDS011;64266;48.798;44.756;2024-01-16T07:59:42;11.20;;;3.90;;
75667;SDS011;64266;48.798;44.756;2024-01-16T08:04:45;7.32;;;3.78;;
75667;SDS011;64266;48.798;44.756;2024-01-16T08:09:49;8.10;;;3.13;;
75667;SDS011;64266;48.798;44.756;2024-01-16T08:14:53;7.05;;;3.33;;
75667;SDS011;64266;48.798;44.756;2024-01-16T08:19:57;9.63;;;3.92;;
75667;SDS011;64266;48.798;44.756;2024-01-16T08:25:00;9.90;;;3.22;;
75667;SDS011;64266;48.798;44.756;2024-01-16T08:30:04;7.63;;;3.90;;
75667;SDS011;64266;48.798;44.756;2024-01-16T08:35:09;8.00;;;3.70;;
75667;SDS011;64266;48.798;44.756;2024-01-16T08:40:15;8.18;;;3.63;;
75667;SDS011;64266;48.798;44.756;2024-01-16T08:45:22;8.25;;;3.03;;
75667;SDS011;64266;48.798;44.756;2024-01-16T08:50:26;8.85;;;3.72;;
75667;SDS011;64266;48.798;44.756;2024-01-16T08:55:29;7.70;;;3.60;;
75667;SDS011;64266;48.798;44.756;2024-01-16T09:00:33;9.45;;;4.50;;
75667;SDS011;64266;48.798;44.756;2024-01-16T09:05:36;11.90;;;5.88;;
75667;SDS011;64266;48.798;44.756;2024-01-16T09:10:42;11.38;;;4.97;;
75667;SDS011;64266;48.798;44.756;2024-01-16T09:15:46;10.60;;;5.47;;
75667;SDS011;64266;48.798;44.756;2024-01-16T09:20:52;9.90;;;4.60;;
75667;SDS011;64266;48.798;44.756;2024-01-16T09:25:56;16.80;;;4.78;;
75667;SDS011;64266;48.798;44.756;2024-01-16T09:31:00;11.18;;;5.03;;
75667;SDS011;64266;48.798;44.756;2024-01-16T09:36:03;6.22;;;3.35;;
75667;SDS011;64266;48.798;44.756;2024-01-16T09:46:44;6.57;;;2.90;;
75667;SDS011;64266;48.798;44.756;2024-01-16T09:51:49;6.53;;;2.30;;
75667;SDS011;64266;48.798;44.756;2024-01-16T09:56:53;7.18;;;3.17;;
75667;SDS011;64266;48.798;44.756;2024-01-16T10:02:01;6.22;;;2.83;;
75667;SDS011;64266;48.798;44.756;2024-01-16T10:07:09;5.50;;;2.20;;
75667;SDS011;64266;48.798;44.756;2024-01-16T10:12:15;4.80;;;1.80;;
75667;SDS011;64266;48.798;44.756;2024-01-16T10:17:19;11.32;;;4.43;;
75667;SDS011;64266;48.798;44.756;2024-01-16T10:22:23;5.38;;;2.22;;
75667;SDS011;64266;48.798;44.756;2024-01-16T10:27:29;7.20;;;3.50;;
75667;SDS011;64266;48.798;44.756;2024-01-16T10:32:34;4.75;;;1.80;;
75667;SDS011;64266;48.798;44.756;2024-01-16T10:43:08;5.70;;;1.73;;
75667;SDS011;64266;48.798;44.756;2024-01-16T10:48:13;5.30;;;1.80;;
75667;SDS011;64266;48.798;44.756;2024-01-16T10:53:17;3.10;;;1.33;;
75667;SDS011;64266;48.798;44.756;2024-01-16T10:58:25;8.68;;;3.55;;
75667;SDS011;64266;48.798;44.756;2024-01-16T11:03:29;4.93;;;1.70;;
75667;SDS011;64266;48.798;44.756;2024-01-16T11:08:49;7.93;;;2.00;;
75667;SDS011;64266;48.798;44.756;2024-01-16T11:13:53;4.00;;;1.75;;
75667;SDS011;64266;48.798;44.756;2024-01-16T11:18:58;4.47;;;1.90;;
75667;SDS011;64266;48.798;44.756;2024-01-16T11:24:22;4.40;;;1.73;;
75667;SDS011;64266;48.798;44.756;2024-01-16T11:39:46;6.90;;;2.03;;
75667;SDS011;64266;48.798;44.756;2024-01-16T11:44:49;5.40;;;1.75;;
75667;SDS011;64266;48.798;44.756;2024-01-16T11:50:10;8.85;;;2.90;;
75667;SDS011;64266;48.798;44.756;2024-01-16T11:55:28;5.00;;;2.10;;
75667;SDS011;64266;48.798;44.756;2024-01-16T12:00:35;10.15;;;2.20;;
75667;SDS011;64266;48.798;44.756;2024-01-16T12:05:44;5.15;;;1.85;;
75667;SDS011;64266;48.798;44.756;2024-01-16T12:10:48;7.93;;;2.53;;
75667;SDS011;64266;48.798;44.756;2024-01-16T12:16:01;5.78;;;1.70;;
75667;SDS011;64266;48.798;44.756;2024-01-16T12:21:07;9.07;;;3.03;;
75667;SDS011;64266;48.798;44.756;2024-01-16T12:26:19;8.50;;;1.80;;
75667;SDS011;64266;48.798;44.756;2024-01-16T12:31:23;8.95;;;2.30;;
75667;SDS011;64266;48.798;44.756;2024-01-16T12:36:29;6.03;;;1.85;;
75667;SDS011;64266;48.798;44.756;2024-01-16T12:41:33;8.70;;;2.15;;
75667;SDS011;64266;48.798;44.756;2024-01-16T12:46:53;11.20;;;2.72;;
75667;SDS011;64266;48.798;44.756;2024-01-16T12:52:17;8.40;;;3.20;;
75667;SDS011;64266;48.798;44.756;2024-01-16T12:57:22;8.35;;;2.88;;
75667;SDS011;64266;48.798;44.756;2024-01-16T13:02:25;8.07;;;2.63;;
75667;SDS011;64266;48.798;44.756;2024-01-16T13:07:28;8.25;;;2.72;;
75667;SDS011;64266;48.798;44.756;2024-01-16T13:12:35;10.25;;;3.30;;
75667;SDS011;64266;48.798;44.756;2024-01-16T13:17:38;8.52;;;2.97;;
75667;SDS011;64266;48.798;44.756;2024-01-16T13:22:42;6.13;;;2.38;;
75667;SDS011;64266;48.798;44.756;2024-01-16T13:27:49;7.90;;;2.42;;
75667;SDS011;64266;48.798;44.756;2024-01-16T13:33:01;11.75;;;2.63;;
75667;SDS011;64266;48.798;44.756;2024-01-16T13:38:06;14.45;;;2.42;;
75667;SDS011;64266;48.798;44.756;2024-01-16T13:43:13;11.27;;;2.95;;
75667;SDS011;64266;48.798;44.756;2024-01-16T13:48:16;5.75;;;2.10;;
75667;SDS011;64266;48.798;44.756;2024-01-16T13:53:20;5.03;;;1.90;;
75667;SDS011;64266;48.798;44.756;2024-01-16T13:58:24;6.78;;;2.28;;
75667;SDS011;64266;48.798;44.756;2024-01-16T14:03:27;7.80;;;1.90;;
75667;SDS011;64266;48.798;44.756;2024-01-16T14:08:30;9.02;;;1.75;;
75667;SDS011;64266;48.798;44.756;2024-01-16T14:13:34;8.38;;;2.28;;
75667;SDS011;64266;48.798;44.756;2024-01-16T14:18:39;6.15;;;1.50;;
75667;SDS011;64266;48.798;44.756;2024-01-16T14:23:42;3.55;;;1.30;;
75667;SDS011;64266;48.798;44.756;2024-01-16T14:28:46;18.92;;;2.20;;
75667;SDS011;64266;48.798;44.756;2024-01-16T14:33:49;7.05;;;2.10;;
75667;SDS011;64266;48.798;44.756;2024-01-16T14:38:53;8.32;;;1.92;;
75667;SDS011;64266;48.798;44.756;2024-01-16T14:43:56;7.10;;;2.03;;
75667;SDS011;64266;48.798;44.756;2024-01-16T14:49:00;8.32;;;2.53;;
75667;SDS011;64266;48.798;44.756;2024-01-16T14:54:04;5.03;;;2.30;;
75667;SDS011;64266;48.798;44.756;2024-01-16T14:59:08;10.60;;;2.72;;
75667;SDS011;64266;48.798;44.756;2024-01-16T15:04:16;8.20;;;2.58;;
75667;SDS011;64266;48.798;44.756;2024-01-16T15:09:20;7.70;;;2.53;;
75667;SDS011;64266;48.798;44.756;2024-01-16T15:14:24;9.98;;;2.30;;
75667;SDS011;64266;48.798;44.756;2024-01-16T15:19:28;6.40;;;1.73;;
75667;SDS011;64266;48.798;44.756;2024-01-16T15:24:32;8.77;;;2.38;;
75667;SDS011;64266;48.798;44.756;2024-01-16T15:29:35;9.25;;;2.20;;
75667;SDS011;64266;48.798;44.756;2024-01-16T15:34:38;10.48;;;2.42;;
75667;SDS011;64266;48.798;44.756;2024-01-16T15:39:41;5.65;;;2.10;;
75667;SDS011;64266;48.798;44.756;2024-01-16T15:44:44;11.32;;;2.67;;
75667;SDS011;64266;48.798;44.756;2024-01-16T15:49:47;6.93;;;1.75;;
75667;SDS011;64266;48.798;44.756;2024-01-16T15:54:51;10.90;;;2.10;;
75667;SDS011;64266;48.798;44.756;2024-01-16T15:59:54;6.35;;;2.17;;
75667;SDS011;64266;48.798;44.756;2024-01-16T16:04:59;6.65;;;2.05;;
75667;SDS011;64266;48.798;44.756;2024-01-16T16:10:06;6.30;;;2.05;;
75667;SDS011;64266;48.798;44.756;2024-01-16T16:15:10;6.55;;;1.95;;
75667;SDS011;64266;48.798;44.756;2024-01-16T16:20:16;6.10;;;2.10;;
75667;SDS011;64266;48.798;44.756;2024-01-16T16:25:20;9.90;;;2.13;;
75667;SDS011;64266;48.798;44.756;2024-01-16T16:30:23;5.45;;;1.65;;
75667;SDS011;64266;48.798;44.756;2024-01-16T16:35:37;5.43;;;1.67;;
75667;SDS011;64266;48.798;44.756;2024-01-16T16:40:41;6.72;;;2.50;;
75667;SDS011;64266;48.798;44.756;2024-01-16T16:45:46;9.43;;;2.58;;
75667;SDS011;64266;48.798;44.756;2024-01-16T16:50:51;8.05;;;3.03;;
75667;SDS011;64266;48.798;44.756;2024-01-16T16:55:54;6.72;;;2.63;;
75667;SDS011;64266;48.798;44.756;2024-01-16T17:00:58;7.68;;;2.63;;
75667;SDS011;64266;48.798;44.756;2024-01-16T17:06:05;9.55;;;3.05;;
75667;SDS011;64266;48.798;44.756;2024-01-16T17:11:13;11.93;;;3.03;;
75667;SDS011;64266;48.798;44.756;2024-01-16T17:16:16;8.70;;;3.10;;
75667;SDS011;64266;48.798;44.756;2024-01-16T17:21:26;14.27;;;3.28;;
75667;SDS011;64266;48.798;44.756;2024-01-16T17:26:29;10.82;;;3.85;;
75667;SDS011;64266;48.798;44.756;2024-01-16T17:31:32;8.13;;;3.30;;
75667;SDS011;64266;48.798;44.756;2024-01-16T17:36:38;11.13;;;3.47;;
75667;SDS011;64266;48.798;44.756;2024-01-16T17:41:41;11.32;;;4.20;;
75667;SDS011;64266;48.798;44.756;2024-01-16T17:46:49;10.48;;;3.95;;
75667;SDS011;64266;48.798;44.756;2024-01-16T17:51:54;14.65;;;4.63;;
75667;SDS011;64266;48.798;44.756;2024-01-16T17:56:58;12.00;;;4.68;;
75667;SDS011;64266;48.798;44.756;2024-01-16T18:02:02;12.93;;;4.65;;
75667;SDS011;64266;48.798;44.756;2024-01-16T18:07:12;13.43;;;4.00;;
75667;SDS011;64266;48.798;44.756;2024-01-16T18:12:18;11.75;;;4.45;;
75667;SDS011;64266;48.798;44.756;2024-01-16T18:17:24;9.80;;;4.15;;
75667;SDS011;64266;48.798;44.756;2024-01-16T18:22:27;11.65;;;4.88;;
75667;SDS011;64266;48.798;44.756;2024-01-16T18:27:33;12.20;;;3.85;;
75667;SDS011;64266;48.798;44.756;2024-01-16T18:32:36;10.88;;;4.38;;
75667;SDS011;64266;48.798;44.756;2024-01-16T18:37:40;14.13;;;5.38;;
75667;SDS011;64266;48.798;44.756;2024-01-16T18:42:44;10.85;;;4.32;;
75667;SDS011;64266;48.798;44.756;2024-01-16T18:48:05;12.70;;;4.63;;
75667;SDS011;64266;48.798;44.756;2024-01-16T18:53:09;12.10;;;4.35;;
75667;SDS011;64266;48.798;44.756;2024-01-16T18:58:15;18.33;;;4.95;;
75667;SDS011;64266;48.798;44.756;2024-01-16T19:03:19;16.13;;;6.03;;
75667;SDS011;64266;48.798;44.756;2024-01-16T19:08:22;14.02;;;4.70;;
75667;SDS011;64266;48.798;44.756;2024-01-16T19:13:26;16.25;;;5.97;;
75667;SDS011;64266;48.798;44.756;2024-01-16T19:18:30;17.88;;;5.22;;
75667;SDS011;64266;48.798;44.756;2024-01-16T19:23:34;18.45;;;6.70;;
75667;SDS011;64266;48.798;44.756;2024-01-16T19:28:37;22.42;;;6.07;;
75667;SDS011;64266;48.798;44.756;2024-01-16T19:33:41;17.13;;;4.85;;
75667;SDS011;64266;48.798;44.756;2024-01-16T19:38:45;16.77;;;6.00;;
75667;SDS011;64266;48.798;44.756;2024-01-16T19:43:48;14.30;;;5.70;;
75667;SDS011;64266;48.798;44.756;2024-01-16T19:48:50;20.15;;;6.00;;
75667;SDS011;64266;48.798;44.756;2024-01-16T19:53:54;17.92;;;5.78;;
75667;SDS011;64266;48.798;44.756;2024-01-16T19:59:02;17.73;;;5.63;;
75667;SDS011;64266;48.798;44.756;2024-01-16T20:04:07;18.02;;;5.82;;
75667;SDS011;64266;48.798;44.756;2024-01-16T20:09:10;20.92;;;6.30;;
75667;SDS011;64266;48.798;44.756;2024-01-16T20:14:14;14.45;;;4.78;;
75667;SDS011;64266;48.798;44.756;2024-01-16T20:19:18;16.38;;;4.55;;
75667;SDS011;64266;48.798;44.756;2024-01-16T20:24:22;13.32;;;5.05;;
75667;SDS011;64266;48.798;44.756;2024-01-16T20:29:26;12.40;;;4.07;;
75667;SDS011;64266;48.798;44.756;2024-01-16T20:34:30;13.27;;;4.13;;
75667;SDS011;64266;48.798;44.756;2024-01-16T20:39:34;8.73;;;3.42;;
75667;SDS011;64266;48.798;44.756;2024-01-16T20:44:36;12.63;;;3.75;;
75667;SDS011;64266;48.798;44.756;2024-01-16T20:49:39;10.10;;;3.50;;
75667;SDS011;64266;48.798;44.756;2024-01-16T20:54:43;9.63;;;3.40;;
75667;SDS011;64266;48.798;44.756;2024-01-16T20:59:46;9.10;;;3.55;;
75667;SDS011;64266;48.798;44.756;2024-01-16T21:04:49;12.10;;;4.25;;
75667;SDS011;64266;48.798;44.756;2024-01-16T21:09:53;9.45;;;3.50;;
75667;SDS011;64266;48.798;44.756;2024-01-16T21:14:56;10.02;;;3.88;;
75667;SDS011;64266;48.798;44.756;2024-01-16T21:19:59;12.23;;;4.15;;
75667;SDS011;64266;48.798;44.756;2024-01-16T21:25:04;11.70;;;4.15;;
75667;SDS011;64266;48.798;44.756;2024-01-16T21:30:08;14.77;;;4.70;;
75667;SDS011;64266;48.798;44.756;2024-01-16T21:35:12;8.77;;;3.95;;
75667;SDS011;64266;48.798;44.756;2024-01-16T21:40:17;19.40;;;6.32;;
75667;SDS011;64266;48.798;44.756;2024-01-16T21:45:20;18.05;;;5.30;;
75667;SDS011;64266;48.798;44.756;2024-01-16T21:50:23;15.40;;;5.50;;
75667;SDS011;64266;48.798;44.756;2024-01-16T21:55:39;15.02;;;5.90;;
75667;SDS011;64266;48.798;44.756;2024-01-16T22:00:43;18.67;;;6.30;;
75667;SDS011;64266;48.798;44.756;2024-01-16T22:05:45;14.23;;;5.28;;
75667;SDS011;64266;48.798;44.756;2024-01-16T22:10:48;15.60;;;5.55;;
75667;SDS011;64266;48.798;44.756;2024-01-16T22:15:51;13.70;;;5.88;;
75667;SDS011;64266;48.798;44.756;2024-01-16T22:20:55;14.23;;;5.70;;
75667;SDS011;64266;48.798;44.756;2024-01-16T22:25:57;20.27;;;7.45;;
75667;SDS011;64266;48.798;44.756;2024-01-16T22:31:03;19.52;;;7.65;;
75667;SDS011;64266;48.798;44.756;2024-01-16T22:36:07;15.57;;;6.70;;
75667;SDS011;64266;48.798;44.756;2024-01-16T22:41:11;15.10;;;6.65;;
75667;SDS011;64266;48.798;44.756;2024-01-16T22:46:14;16.73;;;5.97;;
75667;SDS011;64266;48.798;44.756;2024-01-16T22:51:17;16.73;;;5.63;;
75667;SDS011;64266;48.798;44.756;2024-01-16T22:56:21;17.35;;;5.68;;
75667;SDS011;64266;48.798;44.756;2024-01-16T23:01:24;14.75;;;6.22;;
75667;SDS011;64266;48.798;44.756;2024-01-16T23:06:28;11.30;;;4.22;;
75667;SDS011;64266;48.798;44.756;2024-01-16T23:11:33;8.05;;;3.40;;
75667;SDS011;64266;48.798;44.756;2024-01-16T23:16:36;7.03;;;3.00;;
75667;SDS011;64266;48.798;44.756;2024-01-16T23:21:40;5.38;;;2.50;;
75667;SDS011;64266;48.798;44.756;2024-01-16T23:26:43;5.90;;;2.40;;
75667;SDS011;64266;48.798;44.756;2024-01-16T23:31:46;5.38;;;2.67;;
75667;SDS011;64266;48.798;44.756;2024-01-16T23:36:50;4.35;;;1.50;;
75667;SDS011;64266;48.798;44.756;2024-01-16T23:41:53;3.30;;;1.50;;
75667;SDS011;64266;48.798;44.756;2024-01-16T23:46:58;4.57;;;2.03;;
75667;SDS011;64266;48.798;44.756;2024-01-16T23:52:01;4.43;;;2.08;;
75667;SDS011;64266;48.798;44.756;2024-01-16T23:57:04;6.47;;;2.47;;
